createdAt,value
2024-02-03T00:00:10.008Z,3.58
2024-02-03T00:01:11.947Z,3.30
2024-02-03T00:02:16.333Z,3.50
2024-02-03T00:03:20.519Z,3.60
2024-02-03T00:04:24.681Z,3.22
2024-02-03T00:05:26.419Z,3.50
2024-02-03T00:07:33.687Z,4.20
2024-02-03T00:08:35.405Z,4.88
2024-02-03T00:09:41.493Z,4.07
2024-02-03T00:10:43.361Z,4.95
2024-02-03T00:12:52.351Z,3.92
2024-02-03T00:13:54.530Z,3.67
2024-02-03T00:14:57.097Z,2.95
2024-02-03T00:16:00.985Z,3.25
2024-02-03T00:17:03.555Z,6.00
2024-02-03T00:18:06.093Z,3.00
2024-02-03T00:19:07.937Z,3.90
2024-02-03T00:20:10.546Z,3.50
2024-02-03T00:21:12.396Z,3.75
2024-02-03T00:22:14.719Z,2.95
2024-02-03T00:23:16.786Z,2.88
2024-02-03T00:24:18.551Z,3.20
2024-02-03T00:26:22.139Z,2.67
2024-02-03T00:27:24.202Z,3.35
2024-02-03T00:28:28.942Z,2.80
2024-02-03T00:29:30.731Z,4.00
2024-02-03T00:31:36.657Z,4.40
2024-02-03T00:32:40.714Z,3.47
2024-02-03T00:33:44.945Z,2.88
2024-02-03T00:34:49.557Z,4.05
2024-02-03T00:35:51.415Z,4.00
2024-02-03T00:37:57.326Z,5.40
2024-02-03T00:39:01.898Z,5.50
2024-02-03T00:40:07.279Z,8.82
2024-02-03T00:41:09.017Z,7.43
2024-02-03T00:42:11.009Z,8.55
2024-02-03T00:43:16.084Z,9.77
2024-02-03T00:44:17.892Z,8.93
2024-02-03T00:45:22.766Z,7.90
2024-02-03T00:46:24.525Z,6.30
2024-02-03T00:48:31.122Z,5.57
2024-02-03T00:49:33.327Z,7.72
2024-02-03T00:50:35.171Z,7.22
2024-02-03T00:52:38.822Z,6.88
2024-02-03T00:53:42.664Z,6.70
2024-02-03T00:54:49.318Z,7.75
2024-02-03T00:55:51.125Z,8.15
2024-02-03T00:57:54.547Z,6.18
2024-02-03T01:00:00.404Z,7.25
2024-02-03T01:01:04.579Z,6.43
2024-02-03T01:02:07.449Z,6.43
2024-02-03T01:03:09.644Z,8.90
2024-02-03T01:04:11.594Z,6.72
2024-02-03T01:05:13.504Z,6.75
2024-02-03T01:06:17.783Z,7.50
2024-02-03T01:08:23.618Z,5.22
2024-02-03T01:09:25.536Z,6.10
2024-02-03T01:10:28.029Z,8.20
2024-02-03T01:11:29.756Z,5.80
2024-02-03T01:13:33.454Z,6.38
2024-02-03T01:14:35.197Z,4.88
2024-02-03T01:16:41.193Z,7.70
2024-02-03T01:17:45.358Z,6.18
2024-02-03T01:18:49.911Z,8.10
2024-02-03T01:19:51.793Z,7.72
2024-02-03T01:20:53.943Z,6.43
2024-02-03T01:21:55.758Z,5.50
2024-02-03T01:22:57.610Z,4.65
2024-02-03T01:25:03.162Z,4.20
2024-02-03T01:26:05.065Z,5.43
2024-02-03T01:27:06.979Z,4.28
2024-02-03T01:28:08.754Z,6.05
2024-02-03T01:29:10.603Z,5.45
2024-02-03T01:31:14.133Z,4.75
2024-02-03T01:32:18.244Z,5.97
2024-02-03T01:34:24.175Z,6.25
2024-02-03T01:35:25.977Z,9.43
2024-02-03T01:37:29.356Z,5.47
2024-02-03T01:38:31.164Z,4.70
2024-02-03T01:40:34.634Z,6.75
2024-02-03T01:41:36.549Z,3.53
2024-02-03T01:42:38.317Z,3.50
2024-02-03T01:43:43.112Z,3.25
2024-02-03T01:44:45.303Z,4.38
2024-02-03T01:45:49.711Z,4.75
2024-02-03T01:46:51.488Z,4.47
2024-02-03T01:47:53.349Z,4.10
2024-02-03T01:48:55.565Z,3.85
2024-02-03T01:49:57.764Z,3.88
2024-02-03T01:51:01.182Z,4.95
2024-02-03T01:52:06.636Z,3.35
2024-02-03T01:53:09.552Z,6.70
2024-02-03T01:54:15.342Z,6.93
2024-02-03T01:55:18.483Z,5.10
2024-02-03T01:56:23.526Z,4.28
2024-02-03T01:57:26.923Z,4.18
2024-02-03T01:58:29.817Z,4.60
2024-02-03T01:59:32.696Z,3.92
2024-02-03T02:12:38.363Z,6.55
2024-02-03T02:13:40.346Z,3.95
2024-02-03T02:14:42.145Z,4.55
2024-02-03T02:15:46.608Z,4.45
2024-02-03T02:16:51.085Z,3.00
2024-02-03T02:18:02.233Z,4.63
2024-02-03T02:19:04.227Z,2.90
2024-02-03T02:20:12.294Z,3.38
2024-02-03T02:21:14.114Z,4.95
2024-02-03T02:22:15.874Z,5.75
2024-02-03T02:23:17.989Z,3.72
2024-02-03T02:24:19.749Z,5.03
2024-02-03T02:25:21.605Z,5.30
2024-02-03T02:26:25.912Z,5.00
2024-02-03T02:28:29.488Z,4.63
2024-02-03T02:29:31.259Z,5.15
2024-02-03T02:31:37.764Z,6.70
2024-02-03T02:32:39.766Z,4.55
2024-02-03T02:33:41.669Z,4.70
2024-02-03T02:34:45.640Z,3.40
2024-02-03T02:35:51.012Z,3.00
2024-02-03T02:36:52.804Z,2.63
2024-02-03T02:37:54.767Z,5.30
2024-02-03T02:38:58.818Z,5.15
2024-02-03T02:40:00.705Z,3.80
2024-02-03T02:41:02.729Z,5.95
2024-02-03T02:42:08.010Z,3.72
2024-02-03T02:43:10.058Z,3.80
2024-02-03T02:44:11.908Z,4.82
2024-02-03T02:45:13.905Z,7.95
2024-02-03T02:46:16.793Z,3.40
2024-02-03T02:47:18.523Z,3.33
2024-02-03T02:48:23.111Z,4.85
2024-02-03T02:49:25.013Z,3.65
2024-02-03T02:50:26.858Z,5.15
2024-02-03T02:51:31.222Z,3.90
2024-02-03T02:52:33.624Z,5.35
2024-02-03T02:53:35.376Z,4.53
2024-02-03T02:54:37.399Z,3.83
2024-02-03T02:55:41.443Z,5.30
2024-02-03T02:56:45.593Z,2.97
2024-02-03T02:57:47.462Z,4.63
2024-02-03T02:58:49.233Z,3.45
2024-02-03T03:00:55.288Z,5.35
2024-02-03T03:01:59.443Z,4.45
2024-02-03T03:03:03.648Z,4.57
2024-02-03T03:04:05.633Z,3.97
2024-02-03T03:05:13.205Z,2.83
2024-02-03T03:06:17.614Z,3.20
2024-02-03T03:07:20.280Z,3.25
2024-02-03T03:08:22.561Z,3.78
2024-02-03T03:09:24.458Z,5.40
2024-02-03T03:10:26.409Z,3.35
2024-02-03T03:11:28.173Z,6.15
2024-02-03T03:13:31.796Z,4.50
2024-02-03T03:15:35.201Z,3.00
2024-02-03T03:16:37.086Z,4.18
2024-02-03T03:17:38.856Z,3.17
2024-02-03T03:19:42.989Z,3.10
2024-02-03T03:20:44.846Z,4.45
2024-02-03T03:21:46.636Z,3.38
2024-02-03T03:22:48.833Z,4.43
2024-02-03T03:23:50.617Z,4.68
2024-02-03T03:24:52.559Z,3.45
2024-02-03T03:25:58.124Z,4.22
2024-02-03T03:26:59.924Z,6.20
2024-02-03T03:28:07.540Z,4.97
2024-02-03T03:29:10.216Z,4.60
2024-02-03T03:30:12.579Z,2.53
2024-02-03T03:31:16.776Z,2.90
2024-02-03T03:32:21.244Z,3.63
2024-02-03T03:34:25.018Z,3.70
2024-02-03T03:35:27.076Z,3.10
2024-02-03T03:36:28.877Z,3.22
2024-02-03T03:37:32.936Z,5.03
2024-02-03T03:38:36.361Z,3.88
2024-02-03T03:39:38.184Z,3.72
2024-02-03T03:40:42.555Z,5.40
2024-02-03T03:41:46.814Z,4.55
2024-02-03T03:42:50.401Z,4.68
2024-02-03T03:43:52.436Z,5.03
2024-02-03T03:44:54.253Z,4.50
2024-02-03T03:47:03.347Z,3.70
2024-02-03T03:48:05.467Z,5.95
2024-02-03T03:49:09.499Z,3.88
2024-02-03T03:50:11.286Z,4.88
2024-02-03T03:51:13.054Z,5.00
2024-02-03T03:53:16.506Z,4.18
2024-02-03T03:54:18.368Z,3.20
2024-02-03T03:55:22.665Z,3.00
2024-02-03T03:56:24.380Z,4.03
2024-02-03T03:57:26.172Z,4.78
2024-02-03T03:59:32.316Z,5.38
2024-02-03T04:00:34.850Z,3.35
2024-02-03T04:01:39.553Z,4.78
2024-02-03T04:03:45.134Z,4.40
2024-02-03T04:04:47.054Z,4.03
2024-02-03T04:05:48.779Z,8.07
2024-02-03T04:07:54.697Z,3.83
2024-02-03T04:11:00.627Z,3.92
2024-02-03T04:12:02.491Z,5.97
2024-02-03T04:13:04.470Z,2.85
2024-02-03T04:14:08.150Z,4.93
2024-02-03T04:15:10.117Z,5.72
2024-02-03T04:16:11.975Z,6.38
2024-02-03T04:18:16.090Z,3.15
2024-02-03T04:19:18.109Z,3.17
2024-02-03T04:20:22.150Z,3.97
2024-02-03T04:21:27.762Z,4.15
2024-02-03T04:22:29.588Z,3.42
2024-02-03T04:24:36.014Z,3.92
2024-02-03T04:25:38.045Z,4.20
2024-02-03T04:26:39.779Z,3.33
2024-02-03T04:27:44.093Z,4.28
2024-02-03T04:28:47.157Z,5.57
2024-02-03T04:29:51.280Z,4.00
2024-02-03T04:30:53.037Z,4.35
2024-02-03T04:31:54.897Z,4.30
2024-02-03T04:32:57.040Z,7.57
2024-02-03T04:34:00.913Z,5.32
2024-02-03T04:35:02.859Z,3.40
2024-02-03T04:37:10.349Z,3.63
2024-02-03T04:38:12.138Z,3.28
2024-02-03T04:40:16.088Z,2.92
2024-02-03T04:41:23.998Z,3.20
2024-02-03T04:42:27.933Z,4.28
2024-02-03T04:43:29.616Z,4.05
2024-02-03T04:45:32.982Z,4.43
2024-02-03T04:47:36.501Z,2.53
2024-02-03T04:48:43.365Z,4.70
2024-02-03T04:49:47.773Z,2.55
2024-02-03T04:50:50.166Z,2.60
2024-02-03T04:51:54.174Z,2.50
2024-02-03T04:52:56.112Z,3.83
2024-02-03T04:54:59.521Z,2.58
2024-02-03T04:56:01.185Z,2.30
2024-02-03T04:58:04.601Z,3.58
2024-02-03T04:59:08.639Z,3.15
2024-02-03T05:02:15.923Z,4.40
2024-02-03T05:04:19.449Z,5.20
2024-02-03T05:05:21.280Z,3.75
2024-02-03T05:06:25.968Z,2.38
2024-02-03T05:07:30.411Z,5.50
2024-02-03T05:08:32.891Z,5.60
2024-02-03T05:09:34.680Z,3.40
2024-02-03T05:11:38.200Z,3.03
2024-02-03T05:12:40.061Z,5.28
2024-02-03T05:13:41.732Z,3.10
2024-02-03T05:15:45.390Z,3.00
2024-02-03T05:16:52.103Z,2.63
2024-02-03T05:17:53.881Z,3.35
2024-02-03T05:18:55.981Z,3.17
2024-02-03T05:20:00.285Z,4.70
2024-02-03T05:21:02.036Z,3.22
2024-02-03T05:22:03.901Z,3.15
2024-02-03T05:23:05.638Z,4.63
2024-02-03T05:25:09.673Z,4.25
2024-02-03T05:26:11.429Z,4.70
2024-02-03T05:28:14.824Z,4.90
2024-02-03T05:30:18.140Z,5.05
2024-02-03T05:31:25.958Z,3.05
2024-02-03T05:32:27.654Z,4.97
2024-02-03T05:34:31.392Z,3.92
2024-02-03T05:35:33.141Z,3.55
2024-02-03T05:37:36.569Z,3.50
2024-02-03T05:39:39.955Z,5.30
2024-02-03T05:40:41.754Z,4.35
2024-02-03T05:42:45.077Z,3.45
2024-02-03T05:43:46.854Z,4.10
2024-02-03T05:45:50.424Z,7.00
2024-02-03T05:46:52.400Z,3.88
2024-02-03T05:47:54.166Z,3.38
2024-02-03T05:49:57.734Z,3.58
2024-02-03T05:50:59.631Z,4.20
2024-02-03T05:52:01.414Z,3.85
2024-02-03T05:53:04.558Z,4.07
2024-02-03T05:54:07.346Z,4.65
2024-02-03T05:56:11.231Z,2.63
2024-02-03T05:57:15.592Z,2.95
2024-02-03T05:58:17.938Z,3.22
2024-02-03T05:59:33.342Z,4.40
2024-02-03T06:00:40.462Z,4.15
2024-02-03T06:01:42.335Z,5.35
2024-02-03T06:02:44.376Z,7.45
2024-02-03T06:03:48.726Z,4.68
2024-02-03T06:04:50.476Z,2.83
2024-02-03T06:06:06.146Z,3.03
2024-02-03T06:07:15.690Z,2.65
2024-02-03T06:08:17.580Z,4.13
2024-02-03T06:09:19.731Z,5.28
2024-02-03T06:10:21.518Z,3.65
2024-02-03T06:12:25.099Z,4.50
2024-02-03T06:13:27.145Z,5.05
2024-02-03T06:14:28.837Z,3.85
2024-02-03T06:16:34.850Z,6.05
2024-02-03T06:18:38.370Z,7.25
2024-02-03T06:19:43.569Z,4.65
2024-02-03T06:20:45.989Z,6.30
2024-02-03T06:21:48.886Z,5.53
2024-02-03T06:22:50.715Z,6.43
2024-02-03T06:24:54.191Z,4.15
2024-02-03T06:25:56.102Z,8.52
2024-02-03T06:27:59.395Z,7.18
2024-02-03T06:30:05.543Z,9.38
2024-02-03T06:31:07.340Z,7.45
2024-02-03T06:33:11.112Z,6.82
2024-02-03T06:34:15.694Z,7.90
2024-02-03T06:35:17.477Z,7.25
2024-02-03T06:37:21.102Z,4.88
2024-02-03T06:39:29.096Z,5.05
2024-02-03T06:40:30.887Z,6.00
2024-02-03T06:42:34.160Z,5.50
2024-02-03T06:43:41.810Z,5.93
2024-02-03T06:44:45.329Z,5.03
2024-02-03T06:45:48.541Z,6.25
2024-02-03T06:46:50.334Z,5.32
2024-02-03T06:48:53.905Z,2.75
2024-02-03T06:49:55.929Z,6.93
2024-02-03T06:50:57.697Z,3.60
2024-02-03T06:53:01.130Z,5.40
2024-02-03T06:55:05.541Z,5.22
2024-02-03T06:56:09.648Z,4.15
2024-02-03T06:57:11.390Z,4.95
2024-02-03T06:59:14.827Z,3.83
2024-02-03T07:01:21.236Z,8.45
2024-02-03T07:02:23.088Z,6.28
2024-02-03T07:04:26.469Z,4.85
2024-02-03T07:05:28.323Z,5.82
2024-02-03T07:07:31.791Z,5.22
2024-02-03T07:08:33.588Z,11.30
2024-02-03T07:10:37.063Z,6.22
2024-02-03T07:11:39.846Z,8.10
2024-02-03T07:12:44.287Z,6.75
2024-02-03T07:13:46.125Z,5.10
2024-02-03T07:14:47.879Z,8.52
2024-02-03T07:16:51.875Z,7.35
2024-02-03T07:17:54.024Z,8.68
2024-02-03T07:18:55.927Z,6.72
2024-02-03T07:19:57.769Z,6.68
2024-02-03T07:20:59.601Z,7.18
2024-02-03T07:23:02.945Z,8.25
2024-02-03T07:25:06.548Z,7.63
2024-02-03T07:26:08.258Z,7.20
2024-02-03T07:27:10.838Z,5.60
2024-02-03T07:28:12.851Z,7.88
2024-02-03T07:29:18.672Z,12.07
2024-02-03T07:30:20.558Z,7.53
2024-02-03T07:32:27.671Z,4.82
2024-02-03T07:33:29.826Z,6.70
2024-02-03T07:34:31.916Z,5.18
2024-02-03T07:35:33.918Z,5.90
2024-02-03T07:36:36.115Z,5.60
2024-02-03T07:37:37.795Z,4.32
2024-02-03T07:39:41.206Z,8.17
2024-02-03T07:40:43.051Z,16.27
2024-02-03T07:41:46.834Z,28.73
2024-02-03T07:42:48.709Z,23.02
2024-02-03T07:43:50.518Z,17.92
2024-02-03T07:45:53.909Z,5.38
2024-02-03T07:47:00.183Z,7.28
2024-02-03T07:48:01.971Z,10.05
2024-02-03T07:49:05.383Z,10.90
2024-02-03T07:50:08.756Z,7.82
2024-02-03T07:51:10.719Z,8.43
2024-02-03T07:52:12.564Z,8.93
2024-02-03T07:54:15.963Z,7.82
2024-02-03T07:55:18.323Z,7.15
2024-02-03T07:56:22.136Z,12.27
2024-02-03T07:57:26.257Z,12.43
2024-02-03T07:58:28.011Z,9.40
2024-02-03T08:02:25.264Z,7.47
2024-02-03T08:03:27.235Z,7.07
2024-02-03T08:04:29.088Z,5.80
2024-02-03T08:05:30.847Z,5.35
2024-02-03T08:06:32.688Z,7.22
2024-02-03T08:08:36.412Z,7.55
2024-02-03T08:09:38.237Z,6.18
2024-02-03T08:10:40.008Z,4.45
2024-02-03T08:12:43.428Z,3.88
2024-02-03T08:13:45.182Z,8.38
2024-02-03T08:15:50.845Z,7.82
2024-02-03T08:16:56.570Z,5.80
2024-02-03T08:18:00.459Z,6.63
2024-02-03T08:19:02.670Z,5.07
2024-02-03T08:20:09.762Z,3.80
2024-02-03T08:21:12.336Z,6.47
2024-02-03T08:22:14.544Z,6.07
2024-02-03T08:23:18.849Z,5.10
2024-02-03T08:24:20.980Z,3.90
2024-02-03T08:25:22.836Z,3.30
2024-02-03T08:27:28.309Z,3.13
2024-02-03T08:28:30.199Z,3.70
2024-02-03T08:30:33.470Z,4.25
2024-02-03T08:31:35.246Z,2.92
2024-02-03T08:33:39.110Z,3.63
2024-02-03T08:35:18.169Z,5.05
2024-02-03T08:36:09.412Z,3.50
2024-02-03T08:37:11.583Z,5.30
2024-02-03T08:38:15.994Z,3.20
2024-02-03T08:40:22.880Z,4.50
2024-02-03T08:41:24.681Z,3.45
2024-02-03T08:43:28.049Z,3.83
2024-02-03T08:44:29.819Z,5.07
2024-02-03T08:46:33.268Z,6.10
2024-02-03T08:48:38.824Z,4.40
2024-02-03T08:49:51.059Z,4.57
2024-02-03T08:50:52.960Z,5.40
2024-02-03T08:51:54.920Z,8.05
2024-02-03T08:52:56.648Z,5.50
2024-02-03T08:55:01.364Z,6.05
2024-02-03T08:56:07.289Z,4.10
2024-02-03T08:57:09.069Z,7.28
2024-02-03T08:59:12.565Z,3.90
2024-02-03T09:00:14.999Z,4.85
2024-02-03T09:01:19.005Z,3.97
2024-02-03T09:02:20.831Z,4.40
2024-02-03T09:03:22.669Z,4.05
2024-02-03T09:05:26.367Z,3.88
2024-02-03T09:06:28.294Z,4.93
2024-02-03T09:07:30.050Z,3.97
2024-02-03T09:08:34.047Z,4.78
2024-02-03T09:09:38.868Z,4.13
2024-02-03T09:10:40.605Z,6.35
2024-02-03T09:12:46.406Z,7.70
2024-02-03T09:13:50.678Z,6.88
2024-02-03T09:15:54.208Z,5.95
2024-02-03T09:16:57.108Z,7.80
2024-02-03T09:17:58.924Z,7.40
2024-02-03T09:19:00.882Z,8.32
2024-02-03T09:20:03.716Z,8.48
2024-02-03T09:21:09.769Z,9.65
2024-02-03T09:22:11.827Z,11.25
2024-02-03T09:23:13.654Z,7.93
2024-02-03T09:24:16.285Z,8.23
2024-02-03T09:25:18.115Z,9.18
2024-02-03T09:27:21.506Z,6.28
2024-02-03T09:28:23.282Z,6.85
2024-02-03T09:29:24.981Z,6.72
2024-02-03T09:31:30.870Z,4.70
2024-02-03T09:33:37.574Z,7.40
2024-02-03T09:34:39.688Z,7.47
2024-02-03T09:35:41.870Z,5.75
2024-02-03T09:37:51.362Z,5.55
2024-02-03T09:38:53.214Z,6.68
2024-02-03T09:40:58.613Z,5.43
2024-02-03T09:42:00.660Z,5.05
2024-02-03T09:43:02.685Z,5.90
2024-02-03T09:44:05.849Z,4.45
2024-02-03T09:45:07.883Z,4.15
2024-02-03T09:46:30.213Z,4.53
2024-02-03T09:47:32.128Z,4.45
2024-02-03T09:48:34.032Z,5.05
2024-02-03T09:49:35.913Z,5.63
2024-02-03T09:50:39.782Z,3.33
2024-02-03T09:51:42.218Z,5.53
2024-02-03T09:52:46.206Z,3.67
2024-02-03T09:54:09.399Z,4.28
2024-02-03T09:55:32.767Z,3.10
2024-02-03T09:56:53.426Z,3.10
2024-02-03T09:57:58.753Z,4.60
2024-02-03T09:59:02.955Z,4.28
2024-02-03T10:00:06.873Z,4.30
2024-02-03T10:01:11.142Z,5.20
2024-02-03T10:02:31.765Z,6.97
2024-02-03T10:04:42.076Z,4.93
2024-02-03T10:06:06.314Z,3.97
2024-02-03T10:07:20.734Z,4.05
2024-02-03T10:08:22.457Z,3.35
2024-02-03T10:11:42.294Z,5.75
2024-02-03T10:12:44.071Z,3.88
2024-02-03T10:13:48.452Z,3.78
2024-02-03T10:15:03.176Z,6.45
2024-02-03T10:16:05.422Z,3.05
2024-02-03T10:17:09.045Z,3.00
2024-02-03T10:18:10.785Z,3.05
2024-02-03T10:19:31.444Z,2.72
2024-02-03T10:20:36.099Z,5.07
2024-02-03T10:21:37.920Z,2.70
2024-02-03T10:22:42.232Z,2.40
2024-02-03T10:23:53.189Z,3.88
2024-02-03T10:25:13.942Z,3.70
2024-02-03T10:26:16.897Z,3.92
2024-02-03T10:27:25.947Z,3.65
2024-02-03T10:28:30.041Z,3.80
2024-02-03T10:29:32.100Z,3.50
2024-02-03T10:30:35.961Z,3.00
2024-02-03T10:31:49.229Z,3.10
2024-02-03T10:33:12.892Z,5.50
2024-02-03T10:34:15.731Z,4.70
2024-02-03T10:35:17.666Z,5.05
2024-02-03T10:36:19.645Z,3.45
2024-02-03T10:37:23.681Z,3.15
2024-02-03T10:38:25.531Z,2.70
2024-02-03T10:39:27.497Z,3.63
2024-02-03T10:40:32.184Z,7.30
2024-02-03T10:41:39.985Z,2.95
2024-02-03T10:42:47.014Z,2.72
2024-02-03T10:44:12.234Z,4.28
2024-02-03T10:45:17.014Z,2.88
2024-02-03T10:46:20.385Z,3.35
2024-02-03T10:47:23.046Z,3.08
2024-02-03T10:48:27.603Z,4.30
2024-02-03T10:49:49.650Z,3.00
2024-02-03T10:51:00.542Z,3.55
2024-02-03T10:52:06.631Z,3.13
2024-02-03T10:53:12.738Z,4.05
2024-02-03T10:54:18.708Z,5.28
2024-02-03T10:55:22.663Z,4.45
2024-02-03T10:56:30.428Z,3.53
2024-02-03T10:57:32.283Z,6.18
2024-02-03T10:58:34.708Z,3.65
2024-02-03T10:59:36.532Z,2.95
2024-02-03T11:02:17.829Z,3.60
2024-02-03T11:03:22.921Z,3.05
2024-02-03T11:04:27.165Z,3.08
2024-02-03T11:05:32.631Z,2.70
2024-02-03T11:06:35.074Z,3.00
2024-02-03T11:07:44.691Z,2.67
2024-02-03T11:08:46.384Z,2.33
2024-02-03T11:10:56.084Z,3.05
2024-02-03T11:11:58.447Z,2.40
2024-02-03T11:13:22.257Z,2.20
2024-02-03T11:14:26.043Z,1.95
2024-02-03T11:15:30.293Z,4.20
2024-02-03T11:16:37.868Z,2.60
2024-02-03T11:17:44.208Z,2.40
2024-02-03T11:18:50.359Z,3.08
2024-02-03T11:19:55.443Z,2.47
2024-02-03T11:21:07.596Z,3.83
2024-02-03T11:22:09.366Z,3.53
2024-02-03T11:23:14.914Z,3.55
2024-02-03T11:24:18.778Z,3.70
2024-02-03T11:25:21.043Z,3.70
2024-02-03T11:26:25.174Z,3.58
2024-02-03T11:27:27.149Z,3.30
2024-02-03T11:28:35.498Z,4.47
2024-02-03T11:29:38.178Z,7.82
2024-02-03T11:30:42.759Z,4.53
2024-02-03T11:31:44.541Z,7.40
2024-02-03T11:33:48.425Z,3.05
2024-02-03T11:34:50.469Z,4.00
2024-02-03T11:36:01.562Z,3.40
2024-02-03T11:37:04.021Z,3.13
2024-02-03T11:38:10.607Z,3.55
2024-02-03T11:39:13.458Z,3.65
2024-02-03T11:40:15.432Z,2.92
2024-02-03T11:41:17.783Z,2.50
2024-02-03T11:42:19.550Z,3.20
2024-02-03T11:44:48.094Z,3.22
2024-02-03T11:45:55.502Z,2.83
2024-02-03T11:46:59.938Z,2.58
2024-02-03T11:48:05.988Z,4.05
2024-02-03T11:49:07.959Z,4.63
2024-02-03T11:50:12.434Z,3.13
2024-02-03T11:51:16.379Z,2.85
2024-02-03T11:52:20.346Z,2.97
2024-02-03T11:53:27.039Z,3.55
2024-02-03T11:54:29.543Z,2.85
2024-02-03T11:55:31.359Z,2.85
2024-02-03T11:57:34.893Z,2.38
2024-02-03T11:58:36.748Z,3.28
2024-02-03T12:00:40.092Z,5.03
2024-02-03T12:02:43.719Z,2.55
2024-02-03T12:03:45.522Z,3.13
2024-02-03T12:04:47.485Z,3.90
2024-02-03T12:06:55.469Z,2.13
2024-02-03T12:07:57.629Z,5.28
2024-02-03T12:08:59.336Z,3.70
2024-02-03T12:11:04.336Z,2.10
2024-02-03T12:12:12.236Z,2.17
2024-02-03T12:13:13.937Z,2.75
2024-02-03T12:15:17.760Z,2.25
2024-02-03T12:16:19.504Z,2.08
2024-02-03T12:17:21.479Z,4.55
2024-02-03T12:18:23.400Z,3.47
2024-02-03T12:19:25.973Z,2.17
2024-02-03T12:20:27.931Z,3.58
2024-02-03T12:22:35.551Z,3.33
2024-02-03T12:23:39.362Z,2.78
2024-02-03T12:24:41.194Z,4.28
2024-02-03T12:25:45.711Z,4.15
2024-02-03T12:26:48.677Z,2.30
2024-02-03T12:27:50.748Z,1.92
2024-02-03T12:28:53.907Z,2.22
2024-02-03T12:29:55.792Z,1.90
2024-02-03T12:31:09.053Z,2.30
2024-02-03T12:32:10.793Z,2.17
2024-02-03T12:34:15.005Z,1.58
2024-02-03T12:35:17.152Z,2.08
2024-02-03T12:36:20.364Z,2.20
2024-02-03T12:37:22.198Z,2.30
2024-02-03T12:40:30.485Z,2.03
2024-02-03T12:41:32.438Z,3.20
2024-02-03T12:42:34.373Z,2.50
2024-02-03T12:43:36.959Z,3.03
2024-02-03T12:44:41.018Z,2.80
2024-02-03T12:45:43.004Z,4.53
2024-02-03T12:46:44.694Z,2.45
2024-02-03T12:47:48.775Z,2.92
2024-02-03T12:48:52.714Z,5.30
2024-02-03T12:49:55.027Z,2.67
2024-02-03T12:51:00.451Z,6.65
2024-02-03T12:52:02.411Z,2.63
2024-02-03T12:54:06.514Z,3.38
2024-02-03T12:55:11.237Z,3.35
2024-02-03T12:56:17.245Z,4.22
2024-02-03T12:57:19.066Z,2.58
2024-02-03T12:58:27.088Z,2.70
2024-02-03T12:59:30.015Z,2.47
2024-02-03T13:01:33.657Z,2.45
2024-02-03T13:02:35.388Z,4.35
2024-02-03T13:04:44.430Z,1.85
2024-02-03T13:05:48.555Z,2.72
2024-02-03T13:06:50.464Z,2.13
2024-02-03T13:07:52.750Z,2.58
2024-02-03T13:08:54.574Z,2.80
2024-02-03T13:10:58.053Z,3.92
2024-02-03T13:13:01.777Z,3.38
2024-02-03T13:14:03.530Z,4.90
2024-02-03T13:16:07.661Z,2.85
2024-02-03T13:17:09.670Z,3.05
2024-02-03T13:18:11.425Z,3.15
2024-02-03T13:20:18.384Z,3.00
2024-02-03T13:21:20.165Z,3.95
2024-02-03T13:22:21.984Z,4.00
2024-02-03T13:23:23.816Z,3.38
2024-02-03T13:25:28.808Z,3.10
2024-02-03T13:26:30.691Z,4.00
2024-02-03T13:27:32.765Z,2.60
2024-02-03T13:28:34.587Z,2.90
2024-02-03T13:29:38.602Z,3.60
2024-02-03T13:30:40.627Z,2.75
2024-02-03T13:32:44.250Z,3.88
2024-02-03T13:33:48.363Z,7.30
2024-02-03T13:34:52.291Z,3.47
2024-02-03T13:35:55.600Z,2.50
2024-02-03T13:36:57.501Z,5.05
2024-02-03T13:37:59.921Z,4.57
2024-02-03T13:39:01.802Z,3.05
2024-02-03T13:42:11.865Z,3.17
2024-02-03T13:43:16.043Z,2.85
2024-02-03T13:44:17.766Z,3.97
2024-02-03T13:46:21.344Z,4.25
2024-02-03T13:47:23.739Z,3.83
2024-02-03T13:48:25.611Z,3.80
2024-02-03T13:49:27.472Z,2.40
2024-02-03T13:51:35.530Z,2.45
2024-02-03T13:52:37.494Z,4.55
2024-02-03T13:54:41.330Z,4.93
2024-02-03T13:55:43.035Z,2.58
2024-02-03T13:57:46.552Z,3.90
2024-02-03T13:58:48.622Z,2.67
2024-02-03T13:59:54.670Z,2.53
2024-02-03T14:12:49.268Z,2.92
2024-02-03T14:13:51.230Z,3.22
2024-02-03T14:14:55.380Z,2.85
2024-02-03T14:16:58.829Z,2.67
2024-02-03T14:19:08.103Z,2.90
2024-02-03T14:20:10.354Z,2.40
2024-02-03T14:21:14.389Z,2.78
2024-02-03T14:22:18.626Z,5.22
2024-02-03T14:24:23.390Z,2.95
2024-02-03T14:25:29.917Z,3.42
2024-02-03T14:26:31.685Z,2.67
2024-02-03T14:29:37.872Z,2.95
2024-02-03T14:30:39.656Z,3.05
2024-02-03T14:32:43.067Z,2.65
2024-02-03T14:34:48.936Z,4.18
2024-02-03T14:35:53.498Z,4.97
2024-02-03T14:36:57.458Z,2.45
2024-02-03T14:38:02.499Z,5.90
2024-02-03T14:39:04.454Z,2.85
2024-02-03T14:40:06.691Z,4.13
2024-02-03T14:41:08.933Z,4.18
2024-02-03T14:42:10.818Z,5.35
2024-02-03T14:43:15.210Z,4.38
2024-02-03T14:44:20.566Z,2.90
2024-02-03T14:45:24.754Z,2.53
2024-02-03T14:46:29.674Z,3.00
2024-02-03T14:47:31.473Z,6.15
2024-02-03T14:48:33.509Z,3.45
2024-02-03T14:49:35.602Z,4.95
2024-02-03T14:50:37.429Z,2.53
2024-02-03T14:51:44.166Z,2.55
2024-02-03T14:52:48.267Z,3.47
2024-02-03T14:53:52.094Z,2.70
2024-02-03T14:54:54.511Z,4.95
2024-02-03T14:55:57.075Z,2.67
2024-02-03T14:56:58.984Z,3.85
2024-02-03T14:58:00.914Z,2.47
2024-02-03T14:59:04.733Z,4.25
2024-02-03T15:01:13.693Z,3.58
2024-02-03T15:02:17.758Z,2.90
2024-02-03T15:03:20.105Z,2.83
2024-02-03T15:04:24.544Z,4.93
2024-02-03T15:05:26.373Z,2.30
2024-02-03T15:07:32.844Z,3.08
2024-02-03T15:08:39.270Z,2.30
2024-02-03T15:09:41.134Z,4.13
2024-02-03T15:10:48.547Z,3.17
2024-02-03T15:11:51.050Z,2.85
2024-02-03T15:12:55.652Z,3.38
2024-02-03T15:13:57.532Z,5.43
2024-02-03T15:16:01.163Z,3.70
2024-02-03T15:17:04.013Z,4.35
2024-02-03T15:18:07.363Z,4.57
2024-02-03T15:19:09.376Z,4.53
2024-02-03T15:20:12.392Z,5.82
2024-02-03T15:21:15.168Z,5.50
2024-02-03T15:22:20.330Z,4.20
2024-02-03T15:23:22.442Z,5.22
2024-02-03T15:24:26.803Z,3.65
2024-02-03T15:25:28.646Z,3.58
2024-02-03T15:26:30.485Z,3.33
2024-02-03T15:28:35.784Z,2.72
2024-02-03T15:29:39.561Z,3.70
2024-02-03T15:30:43.992Z,3.35
2024-02-03T15:31:45.797Z,3.75
2024-02-03T15:32:47.786Z,4.35
2024-02-03T15:33:49.751Z,4.00
2024-02-03T15:34:51.714Z,3.47
2024-02-03T15:35:53.581Z,3.78
2024-02-03T15:37:59.992Z,2.90
2024-02-03T15:39:01.800Z,3.47
2024-02-03T15:41:06.289Z,2.75
2024-02-03T15:42:10.700Z,5.40
2024-02-03T15:43:14.744Z,3.05
2024-02-03T15:44:20.364Z,2.67
2024-02-03T15:45:24.490Z,3.50
2024-02-03T15:46:36.671Z,2.80
2024-02-03T15:47:45.707Z,6.70
2024-02-03T15:48:47.530Z,6.25
2024-02-03T15:49:52.112Z,2.50
2024-02-03T15:50:55.050Z,4.07
2024-02-03T15:52:02.050Z,6.03
2024-02-03T15:53:05.270Z,2.58
2024-02-03T15:54:09.401Z,4.50
2024-02-03T15:55:13.058Z,3.97
2024-02-03T15:56:14.919Z,5.65
2024-02-03T15:58:21.594Z,3.92
2024-02-03T15:59:23.988Z,2.88
2024-02-03T16:00:28.744Z,3.13
2024-02-03T16:01:30.790Z,3.50
2024-02-03T16:02:34.750Z,3.25
2024-02-03T16:04:39.706Z,4.80
2024-02-03T16:05:44.274Z,3.85
2024-02-03T16:06:46.100Z,2.45
2024-02-03T16:07:48.044Z,2.72
2024-02-03T16:08:50.062Z,4.13
2024-02-03T16:09:51.813Z,3.28
2024-02-03T16:10:53.627Z,4.82
2024-02-03T16:13:00.777Z,2.60
2024-02-03T16:14:02.702Z,2.90
2024-02-03T16:15:05.692Z,3.85
2024-02-03T16:16:11.069Z,3.15
2024-02-03T16:17:12.983Z,2.92
2024-02-03T16:19:19.284Z,3.72
2024-02-03T16:20:21.546Z,8.45
2024-02-03T16:21:23.373Z,10.82
2024-02-03T16:23:27.061Z,3.22
2024-02-03T16:25:30.454Z,5.43
2024-02-03T16:26:34.799Z,3.25
2024-02-03T16:27:36.690Z,3.35
2024-02-03T16:28:40.263Z,2.58
2024-02-03T16:29:42.167Z,3.03
2024-02-03T16:31:45.694Z,1.75
2024-02-03T16:32:47.640Z,2.42
2024-02-03T16:33:49.769Z,2.83
2024-02-03T16:34:51.691Z,5.43
2024-02-03T16:35:53.525Z,2.83
2024-02-03T16:37:56.881Z,2.47
2024-02-03T16:38:58.728Z,3.42
2024-02-03T16:41:02.312Z,2.38
2024-02-03T16:42:04.240Z,2.95
2024-02-03T16:43:08.682Z,4.05
2024-02-03T16:44:10.333Z,3.70
2024-02-03T16:46:13.886Z,2.85
2024-02-03T16:47:15.897Z,3.25
2024-02-03T16:48:17.862Z,3.60
2024-02-03T16:49:21.554Z,3.38
2024-02-03T16:50:25.683Z,4.22
2024-02-03T16:51:30.006Z,5.15
2024-02-03T16:52:31.968Z,5.88
2024-02-03T16:54:35.739Z,17.52
2024-02-03T16:55:39.993Z,15.98
2024-02-03T16:56:42.196Z,18.55
2024-02-03T16:57:44.047Z,13.77
2024-02-03T16:59:48.311Z,26.00
2024-02-03T17:02:19.079Z,13.75
2024-02-03T17:03:20.938Z,9.50
2024-02-03T17:04:22.857Z,9.23
2024-02-03T17:05:24.577Z,6.85
2024-02-03T17:07:35.477Z,7.47
2024-02-03T17:08:37.532Z,7.63
2024-02-03T17:09:39.381Z,7.47
2024-02-03T17:11:43.148Z,11.25
2024-02-03T17:13:46.849Z,8.95
2024-02-03T17:14:48.579Z,7.63
2024-02-03T17:15:50.423Z,13.63
2024-02-03T17:17:53.946Z,11.05